sensor_id;sensor_type;location;lat;lon;timestamp;P1;durP1;ratioP1;P2;durP2;ratioP2
43449;SDS011;29041;42.266;23.110;2023-01-24T00:00:27;2.90;;;1.90;;
43449;SDS011;29041;42.266;23.110;2023-01-24T00:11:43;2.20;;;1.08;;
43449;SDS011;29041;42.266;23.110;2023-01-24T00:15:18;1.60;;;0.82;;
43449;SDS011;29041;42.266;23.110;2023-01-24T00:18:11;3.65;;;1.88;;
43449;SDS011;29041;42.266;23.110;2023-01-24T00:21:16;1.20;;;1.05;;
43449;SDS011;29041;42.266;23.110;2023-01-24T00:27:00;3.35;;;1.48;;
43449;SDS011;29041;42.266;23.110;2023-01-24T00:29:55;3.65;;;1.70;;
43449;SDS011;29041;42.266;23.110;2023-01-24T00:32:56;2.20;;;1.17;;
43449;SDS011;29041;42.266;23.110;2023-01-24T00:35:51;3.10;;;1.30;;
43449;SDS011;29041;42.266;23.110;2023-01-24T00:38:42;2.45;;;1.58;;
43449;SDS011;29041;42.266;23.110;2023-01-24T00:41:30;4.47;;;1.60;;
43449;SDS011;29041;42.266;23.110;2023-01-24T00:44:22;1.53;;;1.10;;
43449;SDS011;29041;42.266;23.110;2023-01-24T00:47:12;2.45;;;1.42;;
43449;SDS011;29041;42.266;23.110;2023-01-24T00:50:12;2.55;;;1.50;;
43449;SDS011;29041;42.266;23.110;2023-01-24T01:31:50;3.03;;;1.02;;
43449;SDS011;29041;42.266;23.110;2023-01-24T01:34:40;4.57;;;1.60;;
43449;SDS011;29041;42.266;23.110;2023-01-24T02:42:16;2.50;;;1.33;;
43449;SDS011;29041;42.266;23.110;2023-01-24T02:45:39;2.45;;;0.90;;
43449;SDS011;29041;42.266;23.110;2023-01-24T02:48:41;3.22;;;1.20;;
43449;SDS011;29041;42.266;23.110;2023-01-24T02:51:30;2.42;;;1.25;;
43449;SDS011;29041;42.266;23.110;2023-01-24T02:54:38;1.38;;;0.65;;
43449;SDS011;29041;42.266;23.110;2023-01-24T02:57:40;5.00;;;1.98;;
43449;SDS011;29041;42.266;23.110;2023-01-24T03:00:45;1.60;;;1.02;;
43449;SDS011;29041;42.266;23.110;2023-01-24T03:03:36;0.95;;;0.75;;
43449;SDS011;29041;42.266;23.110;2023-01-24T03:06:27;1.60;;;1.00;;
43449;SDS011;29041;42.266;23.110;2023-01-24T03:09:15;1.63;;;0.95;;
43449;SDS011;29041;42.266;23.110;2023-01-24T03:12:19;1.88;;;1.45;;
43449;SDS011;29041;42.266;23.110;2023-01-24T03:15:25;2.47;;;1.17;;
43449;SDS011;29041;42.266;23.110;2023-01-24T03:18:35;2.88;;;0.90;;
43449;SDS011;29041;42.266;23.110;2023-01-24T03:21:40;3.30;;;1.42;;
43449;SDS011;29041;42.266;23.110;2023-01-24T03:24:46;1.50;;;0.98;;
43449;SDS011;29041;42.266;23.110;2023-01-24T03:27:52;1.67;;;1.10;;
43449;SDS011;29041;42.266;23.110;2023-01-24T03:30:58;2.78;;;1.38;;
43449;SDS011;29041;42.266;23.110;2023-01-24T03:34:02;3.38;;;1.90;;
43449;SDS011;29041;42.266;23.110;2023-01-24T03:39:44;2.30;;;1.05;;
43449;SDS011;29041;42.266;23.110;2023-01-24T03:43:06;1.98;;;1.00;;
43449;SDS011;29041;42.266;23.110;2023-01-24T03:46:00;1.90;;;1.05;;
43449;SDS011;29041;42.266;23.110;2023-01-24T03:48:52;2.45;;;1.17;;
43449;SDS011;29041;42.266;23.110;2023-01-24T03:51:40;3.15;;;1.40;;
43449;SDS011;29041;42.266;23.110;2023-01-24T03:54:45;2.38;;;1.40;;
43449;SDS011;29041;42.266;23.110;2023-01-24T03:57:33;1.25;;;0.93;;
43449;SDS011;29041;42.266;23.110;2023-01-24T04:01:02;3.97;;;1.67;;
43449;SDS011;29041;42.266;23.110;2023-01-24T04:03:58;2.63;;;1.63;;
43449;SDS011;29041;42.266;23.110;2023-01-24T04:06:57;1.25;;;0.95;;
43449;SDS011;29041;42.266;23.110;2023-01-24T04:09:46;2.95;;;1.60;;
43449;SDS011;29041;42.266;23.110;2023-01-24T04:12:35;3.47;;;1.98;;
43449;SDS011;29041;42.266;23.110;2023-01-24T04:15:37;2.25;;;1.13;;
43449;SDS011;29041;42.266;23.110;2023-01-24T04:21:50;2.03;;;1.00;;
43449;SDS011;29041;42.266;23.110;2023-01-24T04:24:58;3.08;;;1.42;;
43449;SDS011;29041;42.266;23.110;2023-01-24T04:28:07;3.60;;;1.33;;
43449;SDS011;29041;42.266;23.110;2023-01-24T04:57:25;1.73;;;1.33;;
43449;SDS011;29041;42.266;23.110;2023-01-24T05:00:23;1.45;;;0.93;;
43449;SDS011;29041;42.266;23.110;2023-01-24T05:03:11;2.13;;;1.00;;
43449;SDS011;29041;42.266;23.110;2023-01-24T05:06:14;1.88;;;0.93;;
43449;SDS011;29041;42.266;23.110;2023-01-24T05:09:10;2.20;;;1.42;;
43449;SDS011;29041;42.266;23.110;2023-01-24T05:17:38;4.18;;;2.53;;
43449;SDS011;29041;42.266;23.110;2023-01-24T05:20:35;5.55;;;2.38;;
43449;SDS011;29041;42.266;23.110;2023-01-24T05:23:23;5.82;;;1.92;;
43449;SDS011;29041;42.266;23.110;2023-01-24T05:26:26;6.25;;;3.22;;
43449;SDS011;29041;42.266;23.110;2023-01-24T05:29:21;5.03;;;1.45;;
43449;SDS011;29041;42.266;23.110;2023-01-24T05:32:24;2.45;;;1.35;;
43449;SDS011;29041;42.266;23.110;2023-01-24T05:35:14;3.03;;;1.60;;
43449;SDS011;29041;42.266;23.110;2023-01-24T06:29:00;1.92;;;1.13;;
43449;SDS011;29041;42.266;23.110;2023-01-24T06:31:53;2.53;;;1.73;;
43449;SDS011;29041;42.266;23.110;2023-01-24T06:38:12;2.45;;;1.35;;
43449;SDS011;29041;42.266;23.110;2023-01-24T06:41:20;0.85;;;0.80;;
43449;SDS011;29041;42.266;23.110;2023-01-24T06:48:15;2.03;;;0.95;;
43449;SDS011;29041;42.266;23.110;2023-01-24T06:51:23;1.15;;;0.70;;
43449;SDS011;29041;42.266;23.110;2023-01-24T06:54:32;1.38;;;0.73;;
43449;SDS011;29041;42.266;23.110;2023-01-24T07:08:25;0.95;;;0.93;;
43449;SDS011;29041;42.266;23.110;2023-01-24T07:11:36;1.05;;;0.93;;
43449;SDS011;29041;42.266;23.110;2023-01-24T07:15:09;0.80;;;0.40;;
43449;SDS011;29041;42.266;23.110;2023-01-24T09:01:10;1.25;;;0.93;;
43449;SDS011;29041;42.266;23.110;2023-01-24T09:09:51;1.48;;;1.05;;
43449;SDS011;29041;42.266;23.110;2023-01-24T09:13:10;4.55;;;1.45;;
43449;SDS011;29041;42.266;23.110;2023-01-24T09:16:37;1.23;;;0.90;;
43449;SDS011;29041;42.266;23.110;2023-01-24T09:19:48;1.17;;;0.85;;
43449;SDS011;29041;42.266;23.110;2023-01-24T10:40:59;1.63;;;1.20;;
43449;SDS011;29041;42.266;23.110;2023-01-24T10:44:13;1.67;;;1.00;;
43449;SDS011;29041;42.266;23.110;2023-01-24T10:47:13;1.08;;;0.90;;
43449;SDS011;29041;42.266;23.110;2023-01-24T10:50:41;1.67;;;1.42;;
43449;SDS011;29041;42.266;23.110;2023-01-24T10:54:03;1.60;;;1.02;;
43449;SDS011;29041;42.266;23.110;2023-01-24T10:56:52;1.27;;;0.77;;
43449;SDS011;29041;42.266;23.110;2023-01-24T11:00:03;2.22;;;0.75;;
43449;SDS011;29041;42.266;23.110;2023-01-24T11:03:03;1.63;;;1.08;;
43449;SDS011;29041;42.266;23.110;2023-01-24T11:39:48;1.88;;;1.50;;
43449;SDS011;29041;42.266;23.110;2023-01-24T11:42:45;1.23;;;1.10;;
43449;SDS011;29041;42.266;23.110;2023-01-24T11:45:48;3.20;;;1.38;;
43449;SDS011;29041;42.266;23.110;2023-01-24T11:48:51;1.35;;;1.25;;
43449;SDS011;29041;42.266;23.110;2023-01-24T11:51:52;2.80;;;1.65;;
43449;SDS011;29041;42.266;23.110;2023-01-24T11:54:49;3.10;;;1.70;;
43449;SDS011;29041;42.266;23.110;2023-01-24T11:57:47;2.15;;;1.33;;
43449;SDS011;29041;42.266;23.110;2023-01-24T12:00:53;3.10;;;1.92;;
43449;SDS011;29041;42.266;23.110;2023-01-24T12:03:53;4.70;;;2.88;;
43449;SDS011;29041;42.266;23.110;2023-01-24T12:07:01;2.65;;;1.50;;
43449;SDS011;29041;42.266;23.110;2023-01-24T12:10:03;2.08;;;1.83;;
43449;SDS011;29041;42.266;23.110;2023-01-24T12:13:03;2.83;;;1.60;;
43449;SDS011;29041;42.266;23.110;2023-01-24T12:15:56;2.80;;;2.00;;
43449;SDS011;29041;42.266;23.110;2023-01-24T12:19:00;4.78;;;3.42;;
43449;SDS011;29041;42.266;23.110;2023-01-24T12:21:56;2.58;;;1.60;;
43449;SDS011;29041;42.266;23.110;2023-01-24T12:24:46;3.75;;;2.78;;
43449;SDS011;29041;42.266;23.110;2023-01-24T12:30:29;2.15;;;1.30;;
43449;SDS011;29041;42.266;23.110;2023-01-24T12:33:21;2.63;;;2.05;;
43449;SDS011;29041;42.266;23.110;2023-01-24T12:36:12;2.63;;;1.67;;
43449;SDS011;29041;42.266;23.110;2023-01-24T12:39:06;2.05;;;1.60;;
43449;SDS011;29041;42.266;23.110;2023-01-24T12:42:05;2.10;;;1.42;;
43449;SDS011;29041;42.266;23.110;2023-01-24T13:10:39;4.22;;;2.75;;
43449;SDS011;29041;42.266;23.110;2023-01-24T13:14:09;2.90;;;2.30;;
43449;SDS011;29041;42.266;23.110;2023-01-24T13:18:00;3.47;;;2.83;;
43449;SDS011;29041;42.266;23.110;2023-01-24T13:21:06;4.40;;;2.80;;
43449;SDS011;29041;42.266;23.110;2023-01-24T13:27:58;4.13;;;2.85;;
43449;SDS011;29041;42.266;23.110;2023-01-24T13:34:33;5.43;;;2.65;;
43449;SDS011;29041;42.266;23.110;2023-01-24T13:37:48;4.82;;;2.40;;
43449;SDS011;29041;42.266;23.110;2023-01-24T13:44:28;5.15;;;2.80;;
43449;SDS011;29041;42.266;23.110;2023-01-24T13:47:22;6.38;;;2.53;;
43449;SDS011;29041;42.266;23.110;2023-01-24T13:50:13;5.30;;;2.92;;
43449;SDS011;29041;42.266;23.110;2023-01-24T14:02:59;6.38;;;2.97;;
43449;SDS011;29041;42.266;23.110;2023-01-24T14:06:03;7.38;;;3.45;;
43449;SDS011;29041;42.266;23.110;2023-01-24T14:12:33;3.88;;;2.75;;
43449;SDS011;29041;42.266;23.110;2023-01-24T14:15:41;3.30;;;1.63;;
43449;SDS011;29041;42.266;23.110;2023-01-24T14:45:13;7.60;;;4.13;;
43449;SDS011;29041;42.266;23.110;2023-01-24T14:48:24;5.65;;;3.65;;
43449;SDS011;29041;42.266;23.110;2023-01-24T14:51:28;5.95;;;3.33;;
43449;SDS011;29041;42.266;23.110;2023-01-24T14:55:30;11.95;;;4.82;;
43449;SDS011;29041;42.266;23.110;2023-01-24T14:58:36;7.25;;;3.90;;
43449;SDS011;29041;42.266;23.110;2023-01-24T15:07:48;9.10;;;4.97;;
43449;SDS011;29041;42.266;23.110;2023-01-24T15:10:44;5.68;;;3.58;;
43449;SDS011;29041;42.266;23.110;2023-01-24T15:13:46;6.88;;;4.32;;
43449;SDS011;29041;42.266;23.110;2023-01-24T15:17:04;7.07;;;4.60;;
43449;SDS011;29041;42.266;23.110;2023-01-24T15:20:14;8.93;;;3.92;;
43449;SDS011;29041;42.266;23.110;2023-01-24T15:23:17;6.28;;;4.28;;
43449;SDS011;29041;42.266;23.110;2023-01-24T15:29:41;9.02;;;4.32;;
43449;SDS011;29041;42.266;23.110;2023-01-24T15:32:36;8.07;;;4.60;;
43449;SDS011;29041;42.266;23.110;2023-01-24T15:35:35;11.45;;;5.05;;
43449;SDS011;29041;42.266;23.110;2023-01-24T15:38:29;10.30;;;5.45;;
43449;SDS011;29041;42.266;23.110;2023-01-24T15:41:23;9.63;;;4.88;;
43449;SDS011;29041;42.266;23.110;2023-01-24T18:17:53;5.68;;;3.33;;
43449;SDS011;29041;42.266;23.110;2023-01-24T18:20:56;7.53;;;4.15;;
43449;SDS011;29041;42.266;23.110;2023-01-24T18:26:45;6.43;;;4.13;;
43449;SDS011;29041;42.266;23.110;2023-01-24T18:29:38;9.32;;;4.82;;
43449;SDS011;29041;42.266;23.110;2023-01-24T18:32:32;8.85;;;5.57;;
43449;SDS011;29041;42.266;23.110;2023-01-24T18:36:02;12.95;;;5.80;;
43449;SDS011;29041;42.266;23.110;2023-01-24T20:02:02;8.82;;;5.57;;
43449;SDS011;29041;42.266;23.110;2023-01-24T20:04:54;7.35;;;4.28;;
43449;SDS011;29041;42.266;23.110;2023-01-24T20:07:42;15.05;;;5.95;;
43449;SDS011;29041;42.266;23.110;2023-01-24T20:10:36;8.13;;;4.43;;
43449;SDS011;29041;42.266;23.110;2023-01-24T20:13:27;7.10;;;3.45;;
43449;SDS011;29041;42.266;23.110;2023-01-24T20:16:33;7.68;;;3.70;;
43449;SDS011;29041;42.266;23.110;2023-01-24T20:19:33;8.10;;;3.25;;
43449;SDS011;29041;42.266;23.110;2023-01-24T20:22:29;21.98;;;10.02;;
43449;SDS011;29041;42.266;23.110;2023-01-24T20:27:57;12.45;;;4.13;;
43449;SDS011;29041;42.266;23.110;2023-01-24T20:30:53;10.95;;;5.32;;
43449;SDS011;29041;42.266;23.110;2023-01-24T20:33:50;6.55;;;3.20;;
43449;SDS011;29041;42.266;23.110;2023-01-24T20:36:46;6.07;;;4.07;;
43449;SDS011;29041;42.266;23.110;2023-01-24T20:39:39;5.63;;;3.22;;
43449;SDS011;29041;42.266;23.110;2023-01-24T21:27:17;20.50;;;8.40;;
43449;SDS011;29041;42.266;23.110;2023-01-24T21:30:14;9.65;;;4.40;;
43449;SDS011;29041;42.266;23.110;2023-01-24T21:51:56;11.27;;;6.43;;
43449;SDS011;29041;42.266;23.110;2023-01-24T21:54:48;9.85;;;5.60;;
43449;SDS011;29041;42.266;23.110;2023-01-24T23:43:28;6.90;;;4.03;;
